CET,Max TemperatureF,Mean TemperatureF,Min TemperatureF,Max Dew PointF,MeanDew PointF,Min DewpointF,Max Humidity, Mean Humidity, Min Humidity, Max Sea Level PressureIn, Mean Sea Level PressureIn, Min Sea Level PressureIn, Max VisibilityMiles, Mean VisibilityMiles, Min VisibilityMiles, Max Wind SpeedMPH, Mean Wind SpeedMPH, Max Gust SpeedMPH,PrecipitationIn, CloudCover, Events, WindDirDegrees
2012-10-1,77,68,59,64,61,57,94,82,61,30.04,30.02,30.01,6,6,6,9,5,,0.00,1,,326
2012-10-2,73,66,59,64,62,59,100,82,65,30.12,30.06,30.01,6,6,4,17,6,,0.00,2,,317
2012-10-3,73,66,59,63,60,57,100,82,61,30.12,30.10,30.09,6,6,2,10,5,,0.00,2,,49
2012-10-4,75,65,55,63,60,54,100,83,50,30.12,30.09,30.06,6,5,3,10,4,,0.00,2,Fog,344
2012-10-5,73,65,57,64,60,55,100,84,65,30.15,30.12,30.09,6,4,3,8,4,,0.00,2,Fog,350
2012-10-6,77,65,53,63,58,52,100,81,50,30.18,30.15,30.12,6,5,4,9,4,,0.00,1,,323
2012-10-7,75,66,57,66,62,55,94,83,69,30.12,30.04,29.98,6,6,4,14,6,,0.00,3,,127
2012-10-8,78,70,62,66,64,61,100,83,61,29.98,29.97,29.95,6,6,4,10,5,,0.00,2,,96
2012-10-9,73,66,60,66,63,59,100,86,73,29.95,29.88,29.80,6,5,3,15,6,,0.00,4,Fog,167
2012-10-10,75,67,59,64,61,57,94,83,65,29.86,29.82,29.77,6,6,4,9,4,,0.00,2,Fog,51
2012-10-11,75,65,55,66,62,55,100,85,69,29.89,29.85,29.80,6,5,3,10,5,,0.00,2,Fog,185
2012-10-12,73,68,62,64,64,61,94,86,69,29.92,29.84,29.80,6,6,2,14,8,,0.00,4,Fog-Rain-Thunderstorm,162
2012-10-13,69,64,60,64,61,57,100,91,78,29.92,29.87,29.83,6,5,2,16,4,,0.00,2,Rain-Thunderstorm,93
2012-10-14,71,63,55,61,57,54,100,81,57,29.83,29.81,29.77,6,6,2,10,5,,0.00,3,Fog,129
2012-10-15,73,66,59,64,61,57,94,80,65,29.77,29.71,29.65,6,6,3,32,10,44,0.00,4,Rain-Thunderstorm-Tornado,159
2012-10-16,69,62,53,54,50,48,94,63,49,30.12,29.91,29.74,6,6,6,20,11,30,0.00,2,,253
2012-10-17,71,62,53,57,54,50,94,76,53,30.21,30.17,30.12,6,6,6,8,6,,0.00,2,,122
2012-10-18,73,62,51,59,55,50,94,81,53,30.18,30.16,30.12,6,6,6,8,4,,0.00,1,,67
2012-10-19,78,64,51,59,55,50,94,77,47,30.18,30.14,30.12,5,5,5,7,4,,0.00,,,70
2012-10-20,78,66,55,64,58,52,94,80,47,30.15,30.11,30.09,,,,8,4,,0.00,,,48
2012-10-21,78,66,55,63,58,52,94,77,39,30.09,30.04,30.01,,,,9,4,,0.00,,,74
2012-10-22,75,68,60,68,62,57,94,81,53,30.04,30.03,29.98,6,6,4,10,4,,0.00,2,,300
2012-10-23,77,68,60,68,64,59,100,87,69,30.04,30.03,30.01,6,4,0,9,4,,0.00,4,Fog,98
2012-10-24,73,65,57,63,60,57,100,84,57,30.01,29.97,29.95,6,4,0,13,6,,0.00,2,Fog,105
2012-10-25,73,64,55,61,57,52,94,79,60,29.98,29.93,29.89,6,6,4,8,5,,0.00,1,,89
2012-10-26,71,64,57,64,59,54,94,85,69,29.92,29.74,29.50,6,5,2,26,9,41,0.00,4,Rain-Thunderstorm,117
2012-10-27,71,68,64,64,61,54,88,75,64,29.50,29.36,29.27,6,6,6,26,15,38,0.00,3,Rain-Thunderstorm,219
2012-10-28,64,58,51,55,43,36,73,59,44,29.62,29.52,29.33,6,6,4,31,21,47,0.00,3,Rain,239
2012-10-29,55,50,44,46,43,39,93,77,58,29.89,29.72,29.56,6,6,6,24,11,25,0.00,3,Rain-Thunderstorm,19
2012-10-30,59,49,39,46,41,37,93,72,45,29.92,29.87,29.80,6,6,6,10,5,,0.00,2,,77
2012-10-31,66,58,50,61,53,45,94,85,76,29.80,29.53,29.30,6,4,1,29,13,40,0.00,6,Rain,110